Terminal Aerodrome Forecast
Issued by NWS Jackson, KY

Home | Current Version | Previous Version | Text Only | Print | Product List | Glossary On
Versions: 1 2 3 4 5 6 7 8 9 10 11 12 13 14 15 16 17 18 19 20 21 22 23 24 25 26 27
000
FTUS43 KJKL 181400 AAB
TAFJKL
TAF AMD
KJKL 181405Z 1814/1912 21003KT 2SM BR BKN004
     FM181500 VRB04KT 4SM BR OVC015
     FM181600 29009KT 5SM BR OVC025
     FM181900 VRB06KT P6SM OVC035
     FM190600 VRB04KT 1SM BR OVC003=

USA.gov is the U.S. government's official web portal to all federal, state and local government web resources and services.